createdAt,value
2019-06-26T00:01:46.309Z,8.10
2019-06-26T00:04:14.827Z,8.67
2019-06-26T00:06:43.704Z,8.90
2019-06-26T00:09:12.249Z,9.17
2019-06-26T00:11:40.868Z,8.90
2019-06-26T00:14:09.430Z,7.93
2019-06-26T00:16:37.984Z,8.37
2019-06-26T00:19:07.018Z,9.17
2019-06-26T00:21:35.592Z,9.03
2019-06-26T00:24:04.128Z,8.63
2019-06-26T00:26:32.653Z,8.43
2019-06-26T00:29:01.220Z,8.90
2019-06-26T00:31:29.718Z,9.10
2019-06-26T00:33:58.248Z,9.53
2019-06-26T00:36:26.843Z,8.40
2019-06-26T00:38:55.345Z,8.43
2019-06-26T00:41:23.863Z,8.73
2019-06-26T00:43:52.460Z,7.80
2019-06-26T00:46:21.069Z,9.13
2019-06-26T00:48:49.581Z,9.27
2019-06-26T00:51:18.106Z,9.67
2019-06-26T00:53:46.674Z,9.33
2019-06-26T00:56:15.254Z,8.67
2019-06-26T00:58:43.795Z,9.47
2019-06-26T01:01:12.597Z,9.30
2019-06-26T01:03:41.178Z,9.60
2019-06-26T01:06:16.170Z,9.13
2019-06-26T01:08:44.657Z,9.30
2019-06-26T01:11:13.170Z,9.23
2019-06-26T01:13:57.135Z,9.03
2019-06-26T01:16:11.883Z,9.00
2019-06-26T01:18:40.393Z,9.20
2019-06-26T01:21:08.939Z,7.93
2019-06-26T01:23:38.031Z,9.00
2019-06-26T01:26:06.775Z,8.63
2019-06-26T01:28:35.319Z,8.90
2019-06-26T01:31:03.867Z,9.30
2019-06-26T01:33:32.360Z,9.80
2019-06-26T01:36:00.894Z,9.67
2019-06-26T01:38:29.479Z,9.40
2019-06-26T01:40:58.097Z,8.80
2019-06-26T01:43:26.621Z,9.10
2019-06-26T01:45:55.142Z,10.57
2019-06-26T01:48:23.615Z,9.10
2019-06-26T01:50:52.200Z,9.87
2019-06-26T01:53:21.048Z,8.67
2019-06-26T01:55:50.354Z,8.97
2019-06-26T01:58:18.882Z,9.13
2019-06-26T02:00:47.442Z,9.73
2019-06-26T02:03:16.152Z,9.67
2019-06-26T02:05:44.663Z,9.30
2019-06-26T02:08:13.150Z,11.00
2019-06-26T02:10:41.705Z,8.87
2019-06-26T02:13:10.244Z,9.90
2019-06-26T02:15:38.795Z,10.50
2019-06-26T02:18:26.417Z,8.97
2019-06-26T02:20:54.941Z,8.80
2019-06-26T02:23:23.511Z,9.10
2019-06-26T02:25:52.045Z,9.87
2019-06-26T02:28:20.573Z,8.73
2019-06-26T02:30:49.128Z,10.00
2019-06-26T02:33:17.946Z,9.77
2019-06-26T02:35:46.593Z,9.87
2019-06-26T02:38:15.228Z,8.37
2019-06-26T02:40:44.027Z,8.83
2019-06-26T02:43:12.554Z,10.83
2019-06-26T02:45:41.095Z,8.83
2019-06-26T02:48:09.654Z,10.30
2019-06-26T02:50:38.172Z,9.40
2019-06-26T02:53:06.667Z,10.60
2019-06-26T02:55:35.207Z,10.47
2019-06-26T02:58:03.713Z,10.00
2019-06-26T03:00:32.267Z,9.13
2019-06-26T03:03:01.045Z,10.17
2019-06-26T03:05:29.844Z,9.03
2019-06-26T03:07:58.352Z,9.33
2019-06-26T03:10:26.938Z,9.60
2019-06-26T03:12:55.452Z,10.30
2019-06-26T03:15:23.971Z,9.70
2019-06-26T03:17:55.717Z,9.87
2019-06-26T03:20:28.727Z,10.00
2019-06-26T03:22:56.628Z,10.43
2019-06-26T03:25:25.146Z,10.53
2019-06-26T03:27:54.104Z,9.37
2019-06-26T03:30:24.336Z,9.30
2019-06-26T03:32:52.806Z,9.30
2019-06-26T03:35:21.638Z,10.23
2019-06-26T03:37:50.136Z,9.70
2019-06-26T03:40:18.687Z,10.33
2019-06-26T03:42:47.193Z,9.83
2019-06-26T03:45:25.562Z,10.97
2019-06-26T03:47:46.304Z,10.77
2019-06-26T03:50:14.844Z,10.73
2019-06-26T03:52:43.386Z,9.83
2019-06-26T03:55:11.931Z,9.37
2019-06-26T03:57:40.884Z,10.33
2019-06-26T04:00:09.410Z,11.10
2019-06-26T04:02:37.927Z,10.53
2019-06-26T04:05:06.462Z,13.20
2019-06-26T04:07:35.002Z,10.57
2019-06-26T04:10:03.733Z,11.17
2019-06-26T04:12:32.614Z,11.33
2019-06-26T04:15:01.244Z,11.53
2019-06-26T04:17:29.944Z,10.03
2019-06-26T04:19:58.675Z,11.47
2019-06-26T04:22:27.575Z,11.97
2019-06-26T04:24:56.083Z,12.77
2019-06-26T04:27:24.934Z,11.27
2019-06-26T04:29:53.437Z,10.27
2019-06-26T04:32:21.973Z,10.10
2019-06-26T04:34:50.564Z,10.47
2019-06-26T04:37:19.122Z,11.70
2019-06-26T04:39:47.942Z,11.03
2019-06-26T04:42:16.443Z,12.50
2019-06-26T04:44:45.038Z,10.37
2019-06-26T04:47:13.555Z,11.63
2019-06-26T04:49:42.137Z,10.40
2019-06-26T04:52:10.677Z,10.47
2019-06-26T04:54:39.211Z,9.33
2019-06-26T04:57:07.721Z,9.97
2019-06-26T04:59:36.289Z,11.07
2019-06-26T05:02:04.807Z,11.23
2019-06-26T05:04:33.306Z,12.27
2019-06-26T05:07:01.869Z,10.70
2019-06-26T05:09:30.446Z,11.53
2019-06-26T05:11:59.251Z,10.83
2019-06-26T05:14:27.744Z,12.00
2019-06-26T05:16:56.265Z,11.27
2019-06-26T05:19:24.794Z,11.93
2019-06-26T05:21:53.338Z,11.47
2019-06-26T05:24:21.856Z,11.93
2019-06-26T05:26:50.388Z,12.50
2019-06-26T05:29:18.916Z,10.70
2019-06-26T05:31:47.425Z,10.73
2019-06-26T05:34:15.924Z,10.30
2019-06-26T05:36:44.775Z,10.33
2019-06-26T05:39:13.561Z,9.63
2019-06-26T05:41:42.132Z,11.43
2019-06-26T05:44:10.915Z,11.33
2019-06-26T05:46:39.430Z,9.93
2019-06-26T05:49:08.183Z,10.37
2019-06-26T05:51:36.696Z,10.13
2019-06-26T05:54:05.384Z,10.70
2019-06-26T05:56:33.878Z,9.10
2019-06-26T05:59:02.585Z,9.70
2019-06-26T06:01:31.099Z,11.10
2019-06-26T06:03:59.924Z,10.93
2019-06-26T06:06:41.214Z,10.80
2019-06-26T06:09:00.321Z,9.40
2019-06-26T06:11:28.886Z,10.70
2019-06-26T06:13:57.421Z,9.67
2019-06-26T06:16:25.961Z,9.27
2019-06-26T06:18:54.489Z,10.47
2019-06-26T06:21:22.990Z,9.20
2019-06-26T06:23:51.511Z,9.37
2019-06-26T06:26:20.187Z,9.00
2019-06-26T06:28:48.661Z,11.10
2019-06-26T06:31:17.595Z,10.77
2019-06-26T06:33:46.463Z,9.97
2019-06-26T06:36:15.021Z,10.57
2019-06-26T06:38:43.607Z,9.50
2019-06-26T06:41:12.148Z,10.43
2019-06-26T06:43:40.684Z,10.03
2019-06-26T06:46:09.333Z,10.40
2019-06-26T06:48:38.207Z,9.20
2019-06-26T06:51:06.670Z,9.97
2019-06-26T06:53:35.293Z,9.00
2019-06-26T06:56:04.004Z,9.50
2019-06-26T06:58:32.579Z,9.10
2019-06-26T07:01:01.551Z,9.07
2019-06-26T07:03:30.125Z,10.03
2019-06-26T07:05:58.622Z,9.30
2019-06-26T07:08:27.125Z,9.77
2019-06-26T07:10:55.928Z,9.93
2019-06-26T07:13:24.746Z,9.17
2019-06-26T07:15:53.306Z,8.90
2019-06-26T07:18:21.838Z,9.60
2019-06-26T07:20:50.655Z,9.70
2019-06-26T07:23:19.189Z,9.53
2019-06-26T07:25:47.762Z,9.17
2019-06-26T07:28:16.378Z,9.43
2019-06-26T07:30:44.865Z,8.83
2019-06-26T07:33:13.408Z,10.00
2019-06-26T07:35:41.934Z,9.33
2019-06-26T07:38:10.531Z,9.30
2019-06-26T07:40:39.008Z,7.47
2019-06-26T07:43:07.572Z,7.87
2019-06-26T07:45:36.470Z,8.17
2019-06-26T07:48:04.971Z,8.30
2019-06-26T07:50:33.538Z,7.83
2019-06-26T07:53:02.198Z,8.00
2019-06-26T07:55:30.759Z,7.17
2019-06-26T07:57:59.778Z,7.50
2019-06-26T08:00:31.568Z,6.73
2019-06-26T08:02:58.556Z,6.53
2019-06-26T08:05:27.063Z,7.17
2019-06-26T08:07:55.682Z,6.97
2019-06-26T08:10:24.209Z,7.13
2019-06-26T08:12:52.842Z,6.93
2019-06-26T08:15:21.364Z,7.17
2019-06-26T08:18:00.055Z,7.70
2019-06-26T08:20:20.179Z,6.80
2019-06-26T08:22:48.706Z,6.00
2019-06-26T08:25:17.509Z,6.30
2019-06-26T08:27:45.981Z,7.00
2019-06-26T08:30:14.544Z,7.10
2019-06-26T08:32:43.071Z,5.67
2019-06-26T08:35:11.594Z,7.10
2019-06-26T08:37:40.183Z,5.77
2019-06-26T08:40:08.885Z,5.80
2019-06-26T08:42:37.384Z,5.67
2019-06-26T08:45:06.093Z,5.40
2019-06-26T08:47:34.710Z,5.00
2019-06-26T08:50:03.328Z,6.70
2019-06-26T08:52:32.152Z,5.80
2019-06-26T08:55:00.723Z,5.97
2019-06-26T08:57:29.236Z,6.80
2019-06-26T08:59:57.745Z,6.00
2019-06-26T09:02:26.325Z,5.93
2019-06-26T09:04:57.060Z,6.20
2019-06-26T09:07:25.603Z,5.63
2019-06-26T09:09:54.396Z,5.97
2019-06-26T09:12:22.959Z,5.53
2019-06-26T09:14:51.613Z,6.60
2019-06-26T09:17:20.141Z,5.67
2019-06-26T09:19:49.180Z,6.27
2019-06-26T09:22:17.751Z,5.73
2019-06-26T09:24:46.298Z,5.97
2019-06-26T09:27:17.271Z,6.27
2019-06-26T09:29:45.778Z,6.50
2019-06-26T09:32:14.320Z,7.27
2019-06-26T09:34:42.964Z,7.73
2019-06-26T09:37:11.520Z,6.77
2019-06-26T09:39:40.026Z,7.47
2019-06-26T09:42:08.692Z,7.03
2019-06-26T09:44:37.338Z,6.37
2019-06-26T09:47:05.875Z,7.17
2019-06-26T09:49:34.544Z,6.43
2019-06-26T09:52:03.134Z,6.27
2019-06-26T09:54:31.752Z,5.93
2019-06-26T09:57:00.251Z,6.47
2019-06-26T09:59:29.261Z,6.40
2019-06-26T10:01:57.789Z,6.60
2019-06-26T10:04:26.354Z,7.10
2019-06-26T10:06:55.048Z,5.90
2019-06-26T10:09:23.603Z,6.23
2019-06-26T10:11:52.514Z,5.77
2019-06-26T10:14:21.026Z,4.83
2019-06-26T10:16:49.560Z,5.10
2019-06-26T10:19:18.041Z,5.93
2019-06-26T10:21:46.636Z,5.57
2019-06-26T10:24:15.174Z,5.40
2019-06-26T10:26:43.711Z,5.50
2019-06-26T10:29:12.272Z,5.30
2019-06-26T10:31:40.851Z,5.17
2019-06-26T10:34:10.303Z,5.37
2019-06-26T10:36:39.295Z,4.50
2019-06-26T10:39:08.998Z,4.63
2019-06-26T10:41:37.547Z,4.87
2019-06-26T10:44:06.046Z,5.40
2019-06-26T10:46:34.571Z,4.90
2019-06-26T10:49:03.146Z,5.33
2019-06-26T10:51:31.701Z,4.40
2019-06-26T10:54:00.226Z,4.70
2019-06-26T10:56:28.973Z,4.30
2019-06-26T10:58:58.216Z,4.70
2019-06-26T11:01:26.990Z,4.33
2019-06-26T11:03:55.597Z,4.00
2019-06-26T11:06:24.120Z,4.73
2019-06-26T11:08:52.873Z,3.53
2019-06-26T11:11:21.407Z,4.33
2019-06-26T11:13:49.940Z,4.40
2019-06-26T11:16:18.506Z,3.70
2019-06-26T11:18:47.017Z,4.20
2019-06-26T11:21:15.587Z,4.47
2019-06-26T11:23:44.109Z,3.77
2019-06-26T11:26:12.667Z,4.50
2019-06-26T11:28:41.245Z,4.07
2019-06-26T11:31:09.942Z,4.43
2019-06-26T11:33:38.732Z,3.97
2019-06-26T11:36:07.238Z,4.37
2019-06-26T11:38:36.036Z,3.60
2019-06-26T11:41:04.521Z,3.50
2019-06-26T11:43:33.554Z,4.67
2019-06-26T11:46:02.088Z,4.53
2019-06-26T11:48:30.577Z,4.13
2019-06-26T11:50:59.120Z,4.27
2019-06-26T11:53:27.905Z,3.80
2019-06-26T11:55:56.489Z,3.77
2019-06-26T11:58:25.104Z,4.57
2019-06-26T12:00:53.849Z,3.63
2019-06-26T12:03:22.458Z,4.70
2019-06-26T12:05:50.990Z,4.43
2019-06-26T12:08:19.518Z,4.03
2019-06-26T12:10:48.017Z,4.90
2019-06-26T12:13:16.566Z,4.57
2019-06-26T12:15:45.099Z,3.90
2019-06-26T12:18:13.887Z,4.57
2019-06-26T12:20:42.441Z,4.80
2019-06-26T12:23:10.920Z,4.30
2019-06-26T12:25:39.599Z,5.40
2019-06-26T12:28:08.108Z,5.27
2019-06-26T12:30:36.874Z,4.77
2019-06-26T12:33:05.404Z,5.60
2019-06-26T12:35:34.062Z,4.33
2019-06-26T12:38:02.631Z,5.00
2019-06-26T12:40:31.582Z,4.60
2019-06-26T12:43:00.143Z,4.57
2019-06-26T12:45:28.652Z,4.83
2019-06-26T12:47:57.253Z,5.40
2019-06-26T12:50:35.474Z,4.60
2019-06-26T12:52:56.423Z,4.80
2019-06-26T12:55:25.513Z,4.63
2019-06-26T12:58:08.159Z,6.47
2019-06-26T13:00:24.313Z,4.63
2019-06-26T13:02:52.782Z,5.20
2019-06-26T13:05:21.308Z,4.90
2019-06-26T13:07:49.864Z,4.93
2019-06-26T13:10:18.346Z,5.20
2019-06-26T13:12:46.848Z,4.83
2019-06-26T13:15:15.393Z,4.90
2019-06-26T13:17:43.906Z,4.73
2019-06-26T13:20:12.727Z,4.93
2019-06-26T13:22:41.510Z,5.13
2019-06-26T13:25:10.078Z,5.17
2019-06-26T13:27:38.903Z,4.90
2019-06-26T13:30:07.463Z,4.80
2019-06-26T13:32:36.047Z,4.90
2019-06-26T13:35:04.845Z,6.00
2019-06-26T13:37:33.369Z,5.23
2019-06-26T13:40:01.921Z,4.57
2019-06-26T13:42:30.493Z,5.83
2019-06-26T13:44:59.007Z,5.10
2019-06-26T13:47:27.538Z,5.67
2019-06-26T13:49:56.114Z,4.50
2019-06-26T13:52:24.787Z,5.00
2019-06-26T13:54:57.004Z,5.40
2019-06-26T13:57:23.569Z,6.00
2019-06-26T13:59:52.438Z,5.13
2019-06-26T14:02:20.981Z,5.90
2019-06-26T14:04:49.852Z,5.60
2019-06-26T14:07:18.651Z,4.87
2019-06-26T14:09:47.301Z,5.03
2019-06-26T14:12:19.015Z,5.67
2019-06-26T14:14:57.186Z,4.93
2019-06-26T14:17:16.363Z,5.33
2019-06-26T14:19:44.885Z,5.07
2019-06-26T14:22:14.213Z,5.03
2019-06-26T14:24:42.804Z,4.80
2019-06-26T14:27:11.337Z,5.20
2019-06-26T14:29:39.869Z,4.90
2019-06-26T14:32:08.382Z,4.80
2019-06-26T14:34:36.963Z,4.33
2019-06-26T14:37:05.491Z,4.63
2019-06-26T14:39:34.283Z,5.17
2019-06-26T14:42:02.863Z,4.87
2019-06-26T14:44:31.339Z,4.90
2019-06-26T14:46:59.880Z,5.37
2019-06-26T14:49:28.784Z,5.40
2019-06-26T14:51:57.459Z,4.67
2019-06-26T14:54:26.084Z,4.47
2019-06-26T14:56:54.727Z,5.23
2019-06-26T14:59:23.290Z,4.50
2019-06-26T15:01:51.842Z,4.30
2019-06-26T15:04:20.392Z,4.70
2019-06-26T15:06:48.893Z,4.50
2019-06-26T15:09:17.377Z,4.50
2019-06-26T15:11:45.895Z,4.07
2019-06-26T15:14:14.542Z,4.20
2019-06-26T15:16:43.076Z,4.30
2019-06-26T15:19:11.561Z,4.77
2019-06-26T15:21:40.068Z,4.20
2019-06-26T15:24:08.624Z,4.00
2019-06-26T15:26:37.502Z,4.00
2019-06-26T15:29:06.050Z,4.23
2019-06-26T15:31:34.590Z,4.03
2019-06-26T15:34:03.125Z,4.17
2019-06-26T15:36:31.969Z,4.60
2019-06-26T15:39:00.607Z,4.37
2019-06-26T15:41:29.165Z,4.10
2019-06-26T15:43:58.479Z,3.80
2019-06-26T15:46:27.255Z,4.50
2019-06-26T15:48:55.780Z,3.90
2019-06-26T15:51:24.593Z,4.60
2019-06-26T15:53:53.039Z,4.73
2019-06-26T15:56:21.587Z,4.37
2019-06-26T15:58:50.122Z,3.87
2019-06-26T16:01:18.636Z,3.93
2019-06-26T16:03:47.478Z,3.80
2019-06-26T16:06:16.279Z,4.93
2019-06-26T16:08:44.842Z,4.20
2019-06-26T16:11:13.343Z,5.10
2019-06-26T16:13:41.928Z,4.40
2019-06-26T16:16:10.512Z,4.80
2019-06-26T16:18:43.728Z,5.03
2019-06-26T16:21:12.269Z,5.10
2019-06-26T16:23:40.806Z,5.30
2019-06-26T16:26:09.360Z,5.63
2019-06-26T16:28:38.486Z,5.50
2019-06-26T16:31:06.966Z,5.20
2019-06-26T16:33:35.475Z,5.97
2019-06-26T16:36:04.325Z,5.73
2019-06-26T16:38:32.840Z,5.60
2019-06-26T16:41:01.359Z,5.53
2019-06-26T16:43:29.846Z,6.30
2019-06-26T16:45:58.399Z,6.47
2019-06-26T16:48:27.209Z,5.17
2019-06-26T16:50:55.742Z,5.90
2019-06-26T16:53:24.588Z,6.00
2019-06-26T16:55:53.332Z,5.10
2019-06-26T16:58:21.867Z,6.10
2019-06-26T17:00:50.389Z,5.73
2019-06-26T17:03:18.867Z,5.53
2019-06-26T17:05:47.748Z,5.37
2019-06-26T17:08:16.340Z,5.00
2019-06-26T17:10:44.933Z,4.30
2019-06-26T17:13:13.406Z,5.30
2019-06-26T17:15:41.959Z,5.03
2019-06-26T17:18:10.532Z,5.07
2019-06-26T17:20:39.260Z,5.73
2019-06-26T17:23:08.167Z,4.93
2019-06-26T17:25:36.703Z,5.20
2019-06-26T17:28:05.737Z,5.43
2019-06-26T17:30:34.605Z,4.70
2019-06-26T17:33:03.200Z,5.17
2019-06-26T17:35:31.718Z,4.40
2019-06-26T17:38:00.336Z,4.80
2019-06-26T17:40:28.844Z,4.70
2019-06-26T17:43:11.337Z,4.17
2019-06-26T17:45:27.568Z,4.57
2019-06-26T17:47:56.091Z,5.10
2019-06-26T17:50:24.614Z,3.50
2019-06-26T17:52:53.121Z,3.60
2019-06-26T17:55:21.652Z,3.77
2019-06-26T17:57:50.285Z,2.97
2019-06-26T18:00:22.963Z,3.13
2019-06-26T18:02:51.562Z,2.33
2019-06-26T18:05:20.174Z,2.50
2019-06-26T18:07:48.769Z,2.60
2019-06-26T18:10:17.364Z,2.47
2019-06-26T18:12:45.850Z,2.00
2019-06-26T18:15:14.432Z,1.80
2019-06-26T18:17:43.008Z,1.70
2019-06-26T18:20:12.042Z,2.03
2019-06-26T18:22:40.861Z,4.60
2019-06-26T18:25:09.661Z,2.10
2019-06-26T18:27:38.275Z,2.23
2019-06-26T18:30:06.877Z,1.73
2019-06-26T18:32:35.704Z,2.40
2019-06-26T18:35:04.590Z,2.07
2019-06-26T18:37:33.382Z,1.77
2019-06-26T18:40:01.918Z,1.60
2019-06-26T18:42:30.394Z,1.53
2019-06-26T18:44:58.937Z,2.30
2019-06-26T18:47:27.739Z,2.13
2019-06-26T18:49:56.631Z,1.97
2019-06-26T18:52:25.216Z,2.50
2019-06-26T18:54:53.737Z,1.67
2019-06-26T18:57:22.482Z,2.40
2019-06-26T18:59:51.005Z,2.30
2019-06-26T19:02:19.592Z,2.23
2019-06-26T19:04:48.151Z,2.60
2019-06-26T19:07:16.699Z,3.00
2019-06-26T19:09:45.608Z,2.60
2019-06-26T19:12:14.129Z,3.00
2019-06-26T19:14:45.936Z,3.00
2019-06-26T19:17:12.899Z,2.50
2019-06-26T19:19:41.423Z,2.60
2019-06-26T19:22:09.896Z,2.90
2019-06-26T19:24:38.488Z,2.73
2019-06-26T19:27:07.805Z,2.73
2019-06-26T19:29:36.536Z,2.70
2019-06-26T19:32:05.134Z,2.67
2019-06-26T19:34:33.639Z,3.07
2019-06-26T19:37:02.188Z,3.07
2019-06-26T19:39:30.990Z,3.33
2019-06-26T19:41:59.554Z,3.43
2019-06-26T19:44:28.104Z,2.90
2019-06-26T19:46:56.589Z,2.70
2019-06-26T19:49:25.131Z,2.77
2019-06-26T19:51:53.850Z,2.70
2019-06-26T19:54:26.995Z,2.30
2019-06-26T19:56:52.697Z,2.80
2019-06-26T19:59:21.238Z,3.27
2019-06-26T20:01:51.481Z,2.90
2019-06-26T20:04:20.112Z,3.00
2019-06-26T20:06:48.628Z,3.37
2019-06-26T20:09:17.140Z,3.10
2019-06-26T20:11:45.674Z,3.13
2019-06-26T20:14:14.201Z,2.80
2019-06-26T20:16:42.690Z,2.33
2019-06-26T20:19:11.557Z,2.73
2019-06-26T20:21:40.017Z,3.10
2019-06-26T20:24:08.508Z,2.70
2019-06-26T20:26:36.943Z,2.93
2019-06-26T20:29:05.421Z,2.43
2019-06-26T20:31:33.905Z,2.30
2019-06-26T20:34:02.660Z,2.80
2019-06-26T20:36:31.162Z,2.77
2019-06-26T20:38:59.636Z,2.30
2019-06-26T20:41:28.137Z,2.87
2019-06-26T20:43:56.647Z,2.73
2019-06-26T20:46:25.099Z,3.23
2019-06-26T20:48:53.851Z,2.53
2019-06-26T20:51:22.459Z,2.80
2019-06-26T20:53:51.026Z,3.27
2019-06-26T20:56:19.814Z,2.30
2019-06-26T20:58:48.293Z,2.60
2019-06-26T21:01:16.739Z,2.30
2019-06-26T21:03:45.269Z,1.70
2019-06-26T21:06:13.709Z,2.57
2019-06-26T21:08:42.201Z,2.87
2019-06-26T21:11:10.828Z,2.30
2019-06-26T21:13:39.669Z,2.47
2019-06-26T21:16:08.128Z,2.77
2019-06-26T21:18:36.654Z,2.37
2019-06-26T21:21:05.217Z,2.07
2019-06-26T21:23:33.681Z,2.53
2019-06-26T21:26:02.211Z,2.83
2019-06-26T21:28:30.690Z,3.20
2019-06-26T21:30:59.233Z,3.23
2019-06-26T21:33:27.718Z,3.43
2019-06-26T21:35:56.153Z,3.00
2019-06-26T21:38:24.644Z,2.33
2019-06-26T21:40:53.146Z,2.63
2019-06-26T21:43:21.671Z,2.47
2019-06-26T21:45:50.161Z,2.67
2019-06-26T21:48:18.651Z,2.80
2019-06-26T21:50:47.161Z,2.80
2019-06-26T21:53:15.673Z,2.60
2019-06-26T21:55:44.168Z,2.83
2019-06-26T21:58:12.668Z,2.80
2019-06-26T22:00:41.394Z,2.70
2019-06-26T22:03:10.213Z,2.90
2019-06-26T22:05:39.008Z,2.93
2019-06-26T22:08:07.502Z,2.80
2019-06-26T22:10:36.370Z,2.50
2019-06-26T22:13:05.155Z,2.67
2019-06-26T22:15:33.709Z,2.63
2019-06-26T22:18:02.178Z,2.60
2019-06-26T22:20:30.666Z,2.17
2019-06-26T22:22:59.178Z,2.50
2019-06-26T22:25:27.911Z,2.23
2019-06-26T22:27:56.415Z,2.50
2019-06-26T22:30:25.338Z,2.43
2019-06-26T22:32:53.810Z,2.73
2019-06-26T22:35:22.330Z,2.47
2019-06-26T22:37:50.824Z,2.80
2019-06-26T22:40:19.371Z,2.37
2019-06-26T22:42:47.847Z,2.30
2019-06-26T22:45:16.760Z,1.97
2019-06-26T22:47:45.250Z,2.30
2019-06-26T22:50:13.751Z,2.30
2019-06-26T22:52:42.262Z,3.33
2019-06-26T22:55:10.775Z,2.47
2019-06-26T22:57:39.308Z,3.20
2019-06-26T23:00:08.076Z,2.70
2019-06-26T23:02:36.607Z,2.67
2019-06-26T23:05:05.882Z,2.80
2019-06-26T23:07:34.391Z,2.70
2019-06-26T23:10:02.869Z,2.23
2019-06-26T23:12:31.395Z,2.23
2019-06-26T23:14:59.895Z,2.60
2019-06-26T23:17:28.407Z,2.40
2019-06-26T23:19:56.983Z,2.97
2019-06-26T23:22:25.479Z,2.43
2019-06-26T23:24:54.090Z,2.23
2019-06-26T23:27:22.623Z,2.50
2019-06-26T23:29:51.091Z,2.10
2019-06-26T23:32:19.626Z,2.20
2019-06-26T23:34:48.150Z,2.10
2019-06-26T23:37:16.924Z,2.00
2019-06-26T23:39:45.746Z,2.20
2019-06-26T23:42:14.255Z,2.40
2019-06-26T23:44:42.792Z,2.20
2019-06-26T23:47:11.319Z,2.20
2019-06-26T23:49:39.900Z,2.43
2019-06-26T23:52:08.398Z,2.30
2019-06-26T23:54:36.923Z,2.20
2019-06-26T23:57:05.442Z,2.30
2019-06-26T23:59:33.926Z,2.10
